Belwood, North Carolina
Current Conditions -  °F | °C
As of 4:55 AM on Monday 22 Dec 2014 (Local Time) from KEHO Reporting Station
Haze Haze  
Wind Chill: 35°   Ceiling: 1000
Heat Index: 40°   Visibility: 4mi
Dew Point: 38°   Wind: 8mph
Humidity: 93%   Direction: 40°NE
Pressure: 30.11"   Gusts: NA
Location:  35.4647°N, 81.5349°W
Report Text: KEHO 220955Z AUTO 04007KT 4SM BR BKN010 OVC017 05/04 A3011 RMK AO2 T00450035
Loading
Personal Weather Stations






























Interactive Weather Map New forecast layout! Learn more

10-Day Weather Forecast

Advertisements
Track Severe Weather on mobile